sensor_id;sensor_type;location;lat;lon;timestamp;pressure;altitude;pressure_sealevel;temperature;humidity
44751;BME280;30477;48.224;11.470;2022-09-03T00:00:36;95827.44;;;15.01;57.85
44751;BME280;30477;48.224;11.470;2022-09-03T00:06:09;95829.00;;;15.11;57.87
44751;BME280;30477;48.224;11.470;2022-09-03T00:08:47;95829.28;;;15.16;58.06
44751;BME280;30477;48.224;11.470;2022-09-03T00:11:31;95831.88;;;15.16;57.87
44751;BME280;30477;48.224;11.470;2022-09-03T00:14:19;95822.44;;;15.15;57.93
44751;BME280;30477;48.224;11.470;2022-09-03T00:16:54;95823.34;;;14.99;57.75
44751;BME280;30477;48.224;11.470;2022-09-03T00:19:28;95820.31;;;14.95;57.96
44751;BME280;30477;48.224;11.470;2022-09-03T00:22:08;95821.91;;;14.96;58.13
44751;BME280;30477;48.224;11.470;2022-09-03T00:24:38;95820.69;;;14.84;58.40
44751;BME280;30477;48.224;11.470;2022-09-03T00:27:10;95824.34;;;14.75;58.23
44751;BME280;30477;48.224;11.470;2022-09-03T00:35:42;95821.09;;;14.73;58.47
44751;BME280;30477;48.224;11.470;2022-09-03T00:38:11;95816.59;;;14.58;58.59
44751;BME280;30477;48.224;11.470;2022-09-03T00:46:08;95817.59;;;14.49;59.53
44751;BME280;30477;48.224;11.470;2022-09-03T00:51:40;95803.94;;;14.47;59.58
44751;BME280;30477;48.224;11.470;2022-09-03T00:57:11;95804.28;;;14.44;60.06
44751;BME280;30477;48.224;11.470;2022-09-03T00:59:51;95801.84;;;14.43;60.51
44751;BME280;30477;48.224;11.470;2022-09-03T01:05:50;95808.53;;;14.37;60.42
44751;BME280;30477;48.224;11.470;2022-09-03T01:11:19;95818.84;;;14.30;60.61
44751;BME280;30477;48.224;11.470;2022-09-03T01:27:59;95813.06;;;14.43;61.12
44751;BME280;30477;48.224;11.470;2022-09-03T01:30:28;95814.38;;;14.47;60.94
44751;BME280;30477;48.224;11.470;2022-09-03T01:35:52;95814.25;;;14.40;60.98
44751;BME280;30477;48.224;11.470;2022-09-03T01:38:49;95818.09;;;14.45;61.06
44751;BME280;30477;48.224;11.470;2022-09-03T01:50:22;95813.34;;;14.17;61.53
44751;BME280;30477;48.224;11.470;2022-09-03T01:53:00;95809.63;;;14.11;61.51
44751;BME280;30477;48.224;11.470;2022-09-03T02:00:56;95824.22;;;14.20;61.29
44751;BME280;30477;48.224;11.470;2022-09-03T02:03:24;95811.63;;;14.01;61.71
44751;BME280;30477;48.224;11.470;2022-09-03T02:05:57;95810.34;;;13.89;62.22
44751;BME280;30477;48.224;11.470;2022-09-03T02:08:23;95810.00;;;13.84;62.80
44751;BME280;30477;48.224;11.470;2022-09-03T02:10:54;95809.22;;;13.83;62.60
44751;BME280;30477;48.224;11.470;2022-09-03T02:13:36;95807.59;;;13.90;62.66
44751;BME280;30477;48.224;11.470;2022-09-03T02:16:16;95809.47;;;14.05;62.40
44751;BME280;30477;48.224;11.470;2022-09-03T02:18:50;95806.84;;;14.13;62.04
44751;BME280;30477;48.224;11.470;2022-09-03T02:21:18;95805.28;;;13.95;62.10
44751;BME280;30477;48.224;11.470;2022-09-03T02:23:46;95799.31;;;13.78;62.44
44751;BME280;30477;48.224;11.470;2022-09-03T02:26:14;95803.19;;;13.83;62.49
44751;BME280;30477;48.224;11.470;2022-09-03T02:28:40;95799.28;;;13.95;62.52
44751;BME280;30477;48.224;11.470;2022-09-03T02:31:06;95809.34;;;13.90;62.35
44751;BME280;30477;48.224;11.470;2022-09-03T02:33:36;95811.13;;;13.97;62.58
44751;BME280;30477;48.224;11.470;2022-09-03T02:36:04;95804.78;;;13.92;62.78
44751;BME280;30477;48.224;11.470;2022-09-03T02:38:30;95809.66;;;14.03;62.60
44751;BME280;30477;48.224;11.470;2022-09-03T02:40:55;95816.31;;;14.06;62.39
44751;BME280;30477;48.224;11.470;2022-09-03T02:43:36;95820.09;;;13.95;62.12
44751;BME280;30477;48.224;11.470;2022-09-03T02:46:05;95821.41;;;13.83;62.08
44751;BME280;30477;48.224;11.470;2022-09-03T02:48:32;95818.47;;;13.86;62.69
44751;BME280;30477;48.224;11.470;2022-09-03T02:50:58;95813.97;;;13.71;62.65
44751;BME280;30477;48.224;11.470;2022-09-03T02:53:23;95806.19;;;13.63;62.71
44751;BME280;30477;48.224;11.470;2022-09-03T02:55:49;95803.09;;;13.59;62.53
44751;BME280;30477;48.224;11.470;2022-09-03T02:58:14;95808.13;;;13.53;63.36
44751;BME280;30477;48.224;11.470;2022-09-03T03:00:39;95802.75;;;13.63;63.33
44751;BME280;30477;48.224;11.470;2022-09-03T03:03:05;95802.44;;;13.66;63.37
44751;BME280;30477;48.224;11.470;2022-09-03T03:05:55;95801.28;;;13.60;63.26
44751;BME280;30477;48.224;11.470;2022-09-03T03:08:24;95796.44;;;13.57;63.38
44751;BME280;30477;48.224;11.470;2022-09-03T03:10:57;95797.75;;;13.53;63.26
44751;BME280;30477;48.224;11.470;2022-09-03T03:13:24;95802.94;;;13.61;63.61
44751;BME280;30477;48.224;11.470;2022-09-03T03:15:49;95810.09;;;13.59;63.62
44751;BME280;30477;48.224;11.470;2022-09-03T03:18:15;95805.19;;;13.56;63.44
44751;BME280;30477;48.224;11.470;2022-09-03T03:20:42;95812.53;;;13.52;63.51
44751;BME280;30477;48.224;11.470;2022-09-03T03:23:08;95807.81;;;13.48;63.46
44751;BME280;30477;48.224;11.470;2022-09-03T03:25:35;95813.84;;;13.48;64.08
44751;BME280;30477;48.224;11.470;2022-09-03T03:28:02;95817.53;;;13.62;63.77
44751;BME280;30477;48.224;11.470;2022-09-03T03:30:28;95813.31;;;13.69;63.51
44751;BME280;30477;48.224;11.470;2022-09-03T03:32:54;95813.47;;;13.68;63.30
44751;BME280;30477;48.224;11.470;2022-09-03T03:35:19;95806.34;;;13.53;63.58
44751;BME280;30477;48.224;11.470;2022-09-03T03:37:45;95808.16;;;13.45;63.63
44751;BME280;30477;48.224;11.470;2022-09-03T03:40:11;95800.84;;;13.40;63.97
44751;BME280;30477;48.224;11.470;2022-09-03T03:42:37;95810.75;;;13.36;63.47
44751;BME280;30477;48.224;11.470;2022-09-03T03:45:04;95806.66;;;13.26;63.87
44751;BME280;30477;48.224;11.470;2022-09-03T03:47:30;95813.97;;;13.22;64.63
44751;BME280;30477;48.224;11.470;2022-09-03T03:49:56;95805.66;;;13.27;64.58
44751;BME280;30477;48.224;11.470;2022-09-03T03:52:22;95811.69;;;13.27;64.77
44751;BME280;30477;48.224;11.470;2022-09-03T03:54:48;95815.91;;;13.12;64.26
44751;BME280;30477;48.224;11.470;2022-09-03T03:57:14;95813.28;;;12.95;64.78
44751;BME280;30477;48.224;11.470;2022-09-03T03:59:40;95813.13;;;12.97;65.20
44751;BME280;30477;48.224;11.470;2022-09-03T04:02:05;95808.09;;;12.95;65.56
44751;BME280;30477;48.224;11.470;2022-09-03T04:04:30;95812.97;;;12.98;65.39
44751;BME280;30477;48.224;11.470;2022-09-03T04:06:56;95813.59;;;12.84;65.46
44751;BME280;30477;48.224;11.470;2022-09-03T04:09:21;95805.50;;;12.87;65.69
44751;BME280;30477;48.224;11.470;2022-09-03T04:11:46;95800.31;;;13.04;65.87
44751;BME280;30477;48.224;11.470;2022-09-03T04:14:12;95807.47;;;13.10;65.69
44751;BME280;30477;48.224;11.470;2022-09-03T04:16:38;95807.16;;;13.21;65.79
44751;BME280;30477;48.224;11.470;2022-09-03T04:19:03;95805.50;;;13.28;65.73
44751;BME280;30477;48.224;11.470;2022-09-03T04:21:29;95814.00;;;13.30;65.73
44751;BME280;30477;48.224;11.470;2022-09-03T04:23:56;95820.50;;;13.34;65.46
44751;BME280;30477;48.224;11.470;2022-09-03T04:26:26;95824.25;;;13.40;65.13
44751;BME280;30477;48.224;11.470;2022-09-03T04:28:55;95824.41;;;13.38;65.49
44751;BME280;30477;48.224;11.470;2022-09-03T04:31:21;95830.56;;;13.46;65.42
44751;BME280;30477;48.224;11.470;2022-09-03T04:33:46;95836.41;;;13.48;65.10
44751;BME280;30477;48.224;11.470;2022-09-03T04:36:16;95829.75;;;13.45;64.81
44751;BME280;30477;48.224;11.470;2022-09-03T04:38:44;95842.91;;;13.44;64.97
44751;BME280;30477;48.224;11.470;2022-09-03T04:41:12;95833.50;;;13.43;65.18
44751;BME280;30477;48.224;11.470;2022-09-03T04:43:38;95840.94;;;13.37;64.99
44751;BME280;30477;48.224;11.470;2022-09-03T04:46:05;95839.50;;;13.35;65.44
44751;BME280;30477;48.224;11.470;2022-09-03T04:48:33;95850.53;;;13.37;65.41
44751;BME280;30477;48.224;11.470;2022-09-03T04:51:04;95856.56;;;13.29;65.81
44751;BME280;30477;48.224;11.470;2022-09-03T04:53:31;95853.28;;;13.27;65.63
44751;BME280;30477;48.224;11.470;2022-09-03T04:55:57;95857.88;;;13.33;66.32
44751;BME280;30477;48.224;11.470;2022-09-03T04:58:22;95848.75;;;13.46;66.25
44751;BME280;30477;48.224;11.470;2022-09-03T05:00:47;95854.78;;;13.54;65.98
44751;BME280;30477;48.224;11.470;2022-09-03T05:03:13;95852.81;;;13.56;66.03
44751;BME280;30477;48.224;11.470;2022-09-03T05:05:38;95857.53;;;13.61;66.05
44751;BME280;30477;48.224;11.470;2022-09-03T05:08:03;95862.09;;;13.67;65.47
44751;BME280;30477;48.224;11.470;2022-09-03T05:10:30;95866.47;;;13.58;65.70
44751;BME280;30477;48.224;11.470;2022-09-03T05:13:03;95877.69;;;13.67;65.48
44751;BME280;30477;48.224;11.470;2022-09-03T05:15:30;95872.81;;;13.64;65.22
44751;BME280;30477;48.224;11.470;2022-09-03T05:17:56;95879.31;;;13.60;65.76
44751;BME280;30477;48.224;11.470;2022-09-03T05:20:21;95892.16;;;13.62;65.60
44751;BME280;30477;48.224;11.470;2022-09-03T05:22:47;95887.09;;;13.52;65.49
44751;BME280;30477;48.224;11.470;2022-09-03T05:25:12;95876.69;;;13.52;65.77
44751;BME280;30477;48.224;11.470;2022-09-03T05:27:37;95884.50;;;13.60;66.23
44751;BME280;30477;48.224;11.470;2022-09-03T05:30:03;95884.84;;;13.73;65.66
44751;BME280;30477;48.224;11.470;2022-09-03T05:32:30;95889.53;;;13.78;65.64
44751;BME280;30477;48.224;11.470;2022-09-03T05:34:55;95885.16;;;13.70;65.76
44751;BME280;30477;48.224;11.470;2022-09-03T05:37:21;95888.88;;;13.92;66.04
44751;BME280;30477;48.224;11.470;2022-09-03T05:39:47;95886.25;;;14.00;65.76
44751;BME280;30477;48.224;11.470;2022-09-03T05:42:13;95893.56;;;14.05;65.82
44751;BME280;30477;48.224;11.470;2022-09-03T05:44:39;95891.63;;;14.07;65.41
44751;BME280;30477;48.224;11.470;2022-09-03T05:47:04;95892.28;;;14.01;65.33
44751;BME280;30477;48.224;11.470;2022-09-03T05:49:30;95881.72;;;13.94;65.36
44751;BME280;30477;48.224;11.470;2022-09-03T05:51:56;95884.63;;;13.99;65.33
44751;BME280;30477;48.224;11.470;2022-09-03T05:54:21;95889.03;;;14.07;64.97
44751;BME280;30477;48.224;11.470;2022-09-03T05:56:47;95898.59;;;14.15;65.31
44751;BME280;30477;48.224;11.470;2022-09-03T05:59:12;95888.28;;;14.30;64.92
44751;BME280;30477;48.224;11.470;2022-09-03T06:01:39;95886.69;;;14.29;64.53
44751;BME280;30477;48.224;11.470;2022-09-03T06:04:10;95896.47;;;14.18;64.46
44751;BME280;30477;48.224;11.470;2022-09-03T06:06:42;95902.66;;;14.17;64.55
44751;BME280;30477;48.224;11.470;2022-09-03T06:09:09;95898.41;;;14.16;64.77
44751;BME280;30477;48.224;11.470;2022-09-03T06:11:36;95905.09;;;14.11;64.35
44751;BME280;30477;48.224;11.470;2022-09-03T06:14:05;95889.00;;;14.15;64.45
44751;BME280;30477;48.224;11.470;2022-09-03T06:16:33;95900.00;;;14.26;64.31
44751;BME280;30477;48.224;11.470;2022-09-03T06:18:59;95894.34;;;14.22;64.42
44751;BME280;30477;48.224;11.470;2022-09-03T06:21:25;95891.41;;;14.17;64.57
44751;BME280;30477;48.224;11.470;2022-09-03T06:23:52;95892.91;;;14.19;64.57
44751;BME280;30477;48.224;11.470;2022-09-03T06:26:19;95888.38;;;14.05;64.84
44751;BME280;30477;48.224;11.470;2022-09-03T06:28:45;95901.19;;;14.07;65.02
44751;BME280;30477;48.224;11.470;2022-09-03T06:31:14;95900.56;;;14.05;64.73
44751;BME280;30477;48.224;11.470;2022-09-03T06:33:40;95903.63;;;14.08;65.00
44751;BME280;30477;48.224;11.470;2022-09-03T06:36:11;95904.28;;;14.10;65.33
44751;BME280;30477;48.224;11.470;2022-09-03T06:38:38;95905.22;;;14.26;64.97
44751;BME280;30477;48.224;11.470;2022-09-03T06:41:07;95918.56;;;14.31;64.86
44751;BME280;30477;48.224;11.470;2022-09-03T06:43:37;95917.91;;;14.37;64.58
44751;BME280;30477;48.224;11.470;2022-09-03T06:46:08;95926.34;;;14.47;64.82
44751;BME280;30477;48.224;11.470;2022-09-03T06:48:35;95922.75;;;14.40;63.95
44751;BME280;30477;48.224;11.470;2022-09-03T06:51:03;95928.19;;;14.30;64.45
44751;BME280;30477;48.224;11.470;2022-09-03T06:53:43;95932.91;;;14.27;64.62
44751;BME280;30477;48.224;11.470;2022-09-03T06:56:13;95922.47;;;14.27;64.67
44751;BME280;30477;48.224;11.470;2022-09-03T06:58:41;95933.19;;;14.32;65.07
44751;BME280;30477;48.224;11.470;2022-09-03T07:01:11;95936.78;;;14.39;64.99
44751;BME280;30477;48.224;11.470;2022-09-03T07:03:39;95932.06;;;14.43;64.58
44751;BME280;30477;48.224;11.470;2022-09-03T07:06:07;95928.31;;;14.45;64.42
44751;BME280;30477;48.224;11.470;2022-09-03T07:08:33;95924.25;;;14.43;64.63
44751;BME280;30477;48.224;11.470;2022-09-03T07:10:59;95918.53;;;14.47;65.11
44751;BME280;30477;48.224;11.470;2022-09-03T07:13:25;95923.06;;;14.53;65.05
44751;BME280;30477;48.224;11.470;2022-09-03T07:16:01;95925.03;;;14.51;64.81
44751;BME280;30477;48.224;11.470;2022-09-03T07:18:27;95916.09;;;14.46;65.31
44751;BME280;30477;48.224;11.470;2022-09-03T07:20:57;95922.09;;;14.46;65.48
44751;BME280;30477;48.224;11.470;2022-09-03T07:23:22;95927.31;;;14.46;65.81
44751;BME280;30477;48.224;11.470;2022-09-03T07:25:58;95932.84;;;14.51;65.81
44751;BME280;30477;48.224;11.470;2022-09-03T07:28:25;95932.84;;;14.51;65.56
44751;BME280;30477;48.224;11.470;2022-09-03T07:30:51;95926.63;;;14.52;65.70
44751;BME280;30477;48.224;11.470;2022-09-03T07:33:16;95924.69;;;14.54;66.11
44751;BME280;30477;48.224;11.470;2022-09-03T07:35:43;95924.03;;;14.60;65.92
44751;BME280;30477;48.224;11.470;2022-09-03T07:38:08;95926.34;;;14.55;66.00
44751;BME280;30477;48.224;11.470;2022-09-03T07:40:34;95939.00;;;14.67;66.10
44751;BME280;30477;48.224;11.470;2022-09-03T07:42:59;95936.84;;;14.78;65.81
44751;BME280;30477;48.224;11.470;2022-09-03T07:45:27;95941.88;;;14.80;65.46
44751;BME280;30477;48.224;11.470;2022-09-03T07:47:53;95927.72;;;14.82;65.47
44751;BME280;30477;48.224;11.470;2022-09-03T07:50:18;95932.56;;;14.86;65.53
44751;BME280;30477;48.224;11.470;2022-09-03T07:52:44;95935.81;;;14.88;65.70
44751;BME280;30477;48.224;11.470;2022-09-03T07:55:09;95932.38;;;14.95;65.67
44751;BME280;30477;48.224;11.470;2022-09-03T07:57:35;95931.00;;;15.08;65.70
44751;BME280;30477;48.224;11.470;2022-09-03T08:00:01;95933.50;;;15.24;65.32
44751;BME280;30477;48.224;11.470;2022-09-03T08:02:26;95938.66;;;15.32;65.41
44751;BME280;30477;48.224;11.470;2022-09-03T08:04:52;95935.09;;;15.33;65.10
44751;BME280;30477;48.224;11.470;2022-09-03T08:07:17;95934.41;;;15.39;65.00
44751;BME280;30477;48.224;11.470;2022-09-03T08:09:42;95935.84;;;15.42;64.87
44751;BME280;30477;48.224;11.470;2022-09-03T08:12:08;95937.66;;;15.41;64.68
44751;BME280;30477;48.224;11.470;2022-09-03T08:14:33;95941.91;;;15.34;64.29
44751;BME280;30477;48.224;11.470;2022-09-03T08:16:58;95946.44;;;15.40;64.76
44751;BME280;30477;48.224;11.470;2022-09-03T08:19:24;95927.34;;;15.48;64.74
44751;BME280;30477;48.224;11.470;2022-09-03T08:21:50;95928.25;;;15.55;64.64
44751;BME280;30477;48.224;11.470;2022-09-03T08:24:16;95934.28;;;15.56;64.80
44751;BME280;30477;48.224;11.470;2022-09-03T08:26:43;95936.97;;;15.71;65.16
44751;BME280;30477;48.224;11.470;2022-09-03T08:29:08;95937.38;;;15.82;64.96
44751;BME280;30477;48.224;11.470;2022-09-03T08:31:34;95933.72;;;15.92;64.46
44751;BME280;30477;48.224;11.470;2022-09-03T08:34:01;95943.09;;;16.01;64.72
44751;BME280;30477;48.224;11.470;2022-09-03T08:36:35;95947.59;;;16.07;64.44
44751;BME280;30477;48.224;11.470;2022-09-03T08:39:04;95940.97;;;16.19;64.39
44751;BME280;30477;48.224;11.470;2022-09-03T08:49:52;95930.06;;;16.31;63.82
44751;BME280;30477;48.224;11.470;2022-09-03T08:52:27;95924.41;;;16.42;64.40
44751;BME280;30477;48.224;11.470;2022-09-03T08:57:48;95916.75;;;16.85;64.38
44751;BME280;30477;48.224;11.470;2022-09-03T09:00:15;95920.88;;;16.94;64.27
44751;BME280;30477;48.224;11.470;2022-09-03T09:05:16;95930.22;;;17.18;63.78
44751;BME280;30477;48.224;11.470;2022-09-03T09:10:28;95924.31;;;17.31;63.64
44751;BME280;30477;48.224;11.470;2022-09-03T09:13:19;95929.56;;;17.53;63.85
44751;BME280;30477;48.224;11.470;2022-09-03T09:16:06;95928.69;;;17.67;63.80
44751;BME280;30477;48.224;11.470;2022-09-03T09:18:55;95926.69;;;17.69;63.64
44751;BME280;30477;48.224;11.470;2022-09-03T09:21:29;95920.09;;;17.73;63.76
44751;BME280;30477;48.224;11.470;2022-09-03T09:24:00;95915.09;;;17.78;63.72
44751;BME280;30477;48.224;11.470;2022-09-03T09:26:28;95918.03;;;17.90;63.64
44751;BME280;30477;48.224;11.470;2022-09-03T09:29:05;95914.81;;;18.16;63.60
44751;BME280;30477;48.224;11.470;2022-09-03T09:31:31;95905.41;;;18.29;63.12
44751;BME280;30477;48.224;11.470;2022-09-03T09:34:04;95896.59;;;18.36;62.46
44751;BME280;30477;48.224;11.470;2022-09-03T09:36:46;95901.25;;;18.41;62.22
44751;BME280;30477;48.224;11.470;2022-09-03T09:39:12;95913.84;;;18.52;62.11
44751;BME280;30477;48.224;11.470;2022-09-03T09:41:41;95906.41;;;18.62;62.07
44751;BME280;30477;48.224;11.470;2022-09-03T09:44:07;95904.41;;;18.64;62.02
44751;BME280;30477;48.224;11.470;2022-09-03T09:46:37;95898.34;;;18.64;61.82
44751;BME280;30477;48.224;11.470;2022-09-03T09:49:21;95892.34;;;18.70;61.43
44751;BME280;30477;48.224;11.470;2022-09-03T09:51:59;95898.59;;;18.69;61.68
44751;BME280;30477;48.224;11.470;2022-09-03T09:54:25;95897.59;;;18.77;61.85
44751;BME280;30477;48.224;11.470;2022-09-03T09:57:06;95894.84;;;18.85;61.75
44751;BME280;30477;48.224;11.470;2022-09-03T09:59:33;95897.31;;;18.93;61.68
44751;BME280;30477;48.224;11.470;2022-09-03T10:02:14;95892.09;;;19.06;61.94
44751;BME280;30477;48.224;11.470;2022-09-03T10:04:44;95887.75;;;19.54;61.34
44751;BME280;30477;48.224;11.470;2022-09-03T10:07:28;95893.25;;;19.85;60.83
44751;BME280;30477;48.224;11.470;2022-09-03T10:10:18;95894.88;;;20.00;59.61
44751;BME280;30477;48.224;11.470;2022-09-03T10:12:52;95888.59;;;20.14;59.15
44751;BME280;30477;48.224;11.470;2022-09-03T10:15:47;95890.59;;;20.25;57.85
44751;BME280;30477;48.224;11.470;2022-09-03T10:21:16;95885.34;;;20.25;57.15
44751;BME280;30477;48.224;11.470;2022-09-03T10:26:28;95887.78;;;20.20;57.07
44751;BME280;30477;48.224;11.470;2022-09-03T10:28:59;95883.91;;;20.30;57.30
44751;BME280;30477;48.224;11.470;2022-09-03T10:40:42;95889.41;;;20.15;56.76
44751;BME280;30477;48.224;11.470;2022-09-03T10:43:35;95887.38;;;20.17;56.74
44751;BME280;30477;48.224;11.470;2022-09-03T10:46:32;95880.50;;;20.22;57.14
44751;BME280;30477;48.224;11.470;2022-09-03T10:52:08;95881.50;;;20.28;56.43
44751;BME280;30477;48.224;11.470;2022-09-03T10:55:26;95875.41;;;20.41;56.39
44751;BME280;30477;48.224;11.470;2022-09-03T10:57:44;95871.53;;;20.63;56.51
44751;BME280;30477;48.224;11.470;2022-09-03T11:00:14;95867.88;;;20.71;55.65
44751;BME280;30477;48.224;11.470;2022-09-03T11:05:34;95870.44;;;20.84;55.55
44751;BME280;30477;48.224;11.470;2022-09-03T11:08:10;95864.97;;;20.86;54.84
44751;BME280;30477;48.224;11.470;2022-09-03T11:10:40;95870.63;;;20.83;54.16
44751;BME280;30477;48.224;11.470;2022-09-03T11:13:20;95869.03;;;20.82;54.17
44751;BME280;30477;48.224;11.470;2022-09-03T11:15:51;95865.19;;;20.78;53.75
44751;BME280;30477;48.224;11.470;2022-09-03T11:18:23;95855.50;;;20.72;53.95
44751;BME280;30477;48.224;11.470;2022-09-03T11:20:51;95857.53;;;20.70;54.07
44751;BME280;30477;48.224;11.470;2022-09-03T11:23:20;95855.72;;;20.77;53.52
44751;BME280;30477;48.224;11.470;2022-09-03T11:25:50;95853.66;;;20.85;53.92
44751;BME280;30477;48.224;11.470;2022-09-03T11:28:42;95851.09;;;21.04;54.50
44751;BME280;30477;48.224;11.470;2022-09-03T11:31:30;95852.03;;;21.16;53.73
44751;BME280;30477;48.224;11.470;2022-09-03T11:34:13;95859.16;;;21.16;53.11
44751;BME280;30477;48.224;11.470;2022-09-03T11:36:39;95859.06;;;21.29;53.57
44751;BME280;30477;48.224;11.470;2022-09-03T11:39:17;95854.81;;;21.28;53.28
44751;BME280;30477;48.224;11.470;2022-09-03T11:41:55;95838.81;;;21.29;53.33
44751;BME280;30477;48.224;11.470;2022-09-03T11:44:21;95840.81;;;21.34;53.20
44751;BME280;30477;48.224;11.470;2022-09-03T11:46:54;95838.19;;;21.34;52.61
44751;BME280;30477;48.224;11.470;2022-09-03T11:49:28;95834.50;;;21.35;52.16
44751;BME280;30477;48.224;11.470;2022-09-03T11:52:02;95831.84;;;21.48;51.96
44751;BME280;30477;48.224;11.470;2022-09-03T11:54:32;95836.25;;;21.55;51.77
44751;BME280;30477;48.224;11.470;2022-09-03T11:57:12;95826.97;;;21.45;51.93
44751;BME280;30477;48.224;11.470;2022-09-03T11:59:40;95826.97;;;21.45;53.24
44751;BME280;30477;48.224;11.470;2022-09-03T12:02:16;95816.88;;;21.42;53.88
44751;BME280;30477;48.224;11.470;2022-09-03T12:13:12;95822.81;;;21.63;54.01
44751;BME280;30477;48.224;11.470;2022-09-03T12:18:28;95820.53;;;21.66;53.06
44751;BME280;30477;48.224;11.470;2022-09-03T12:23:44;95819.66;;;21.73;53.53
44751;BME280;30477;48.224;11.470;2022-09-03T12:26:21;95813.34;;;21.80;53.19
44751;BME280;30477;48.224;11.470;2022-09-03T12:28:54;95809.66;;;21.81;52.88
44751;BME280;30477;48.224;11.470;2022-09-03T12:31:23;95806.03;;;21.82;52.39
44751;BME280;30477;48.224;11.470;2022-09-03T12:36:21;95809.53;;;21.76;52.11
44751;BME280;30477;48.224;11.470;2022-09-03T12:38:47;95808.44;;;21.84;52.33
44751;BME280;30477;48.224;11.470;2022-09-03T12:41:24;95810.56;;;21.94;52.38
44751;BME280;30477;48.224;11.470;2022-09-03T12:43:56;95810.50;;;22.00;53.08
44751;BME280;30477;48.224;11.470;2022-09-03T12:46:23;95812.06;;;22.08;53.01
44751;BME280;30477;48.224;11.470;2022-09-03T12:48:57;95812.56;;;22.17;53.08
44751;BME280;30477;48.224;11.470;2022-09-03T12:51:31;95815.78;;;22.19;52.44
44751;BME280;30477;48.224;11.470;2022-09-03T12:53:57;95802.88;;;22.10;51.88
44751;BME280;30477;48.224;11.470;2022-09-03T12:56:24;95804.41;;;22.00;51.67
44751;BME280;30477;48.224;11.470;2022-09-03T12:58:57;95803.69;;;22.11;52.35
44751;BME280;30477;48.224;11.470;2022-09-03T13:01:30;95805.78;;;22.09;51.25
44751;BME280;30477;48.224;11.470;2022-09-03T13:04:04;95802.41;;;22.20;51.56
44751;BME280;30477;48.224;11.470;2022-09-03T13:07:01;95803.00;;;22.41;52.21
44751;BME280;30477;48.224;11.470;2022-09-03T13:09:32;95785.28;;;22.29;51.92
44751;BME280;30477;48.224;11.470;2022-09-03T13:12:00;95784.34;;;22.24;52.29
44751;BME280;30477;48.224;11.470;2022-09-03T13:14:41;95781.88;;;22.04;52.05
44751;BME280;30477;48.224;11.470;2022-09-03T13:17:29;95780.88;;;22.05;52.27
44751;BME280;30477;48.224;11.470;2022-09-03T13:20:30;95788.78;;;22.05;52.00
44751;BME280;30477;48.224;11.470;2022-09-03T13:23:05;95791.53;;;22.10;51.29
44751;BME280;30477;48.224;11.470;2022-09-03T13:26:01;95788.63;;;22.18;51.08
44751;BME280;30477;48.224;11.470;2022-09-03T13:32:06;95802.53;;;22.07;49.52
44751;BME280;30477;48.224;11.470;2022-09-03T13:34:32;95808.69;;;22.01;49.80
44751;BME280;30477;48.224;11.470;2022-09-03T13:37:30;95810.72;;;21.99;50.39
44751;BME280;30477;48.224;11.470;2022-09-03T13:39:59;95815.56;;;22.02;50.92
44751;BME280;30477;48.224;11.470;2022-09-03T13:42:44;95814.38;;;21.98;51.05
44751;BME280;30477;48.224;11.470;2022-09-03T13:45:28;95816.88;;;21.93;51.48
44751;BME280;30477;48.224;11.470;2022-09-03T13:51:06;95803.97;;;21.84;51.83
44751;BME280;30477;48.224;11.470;2022-09-03T13:53:43;95808.19;;;21.85;52.42
44751;BME280;30477;48.224;11.470;2022-09-03T13:57:20;95813.91;;;21.82;52.91
44751;BME280;30477;48.224;11.470;2022-09-03T14:00:27;95812.81;;;21.72;53.15
44751;BME280;30477;48.224;11.470;2022-09-03T14:11:02;95843.56;;;21.53;53.64
44751;BME280;30477;48.224;11.470;2022-09-03T14:16:41;95849.66;;;21.46;54.09
44751;BME280;30477;48.224;11.470;2022-09-03T14:19:14;95839.56;;;21.43;54.15
44751;BME280;30477;48.224;11.470;2022-09-03T14:22:00;95861.03;;;21.40;54.66
44751;BME280;30477;48.224;11.470;2022-09-03T14:24:34;95882.47;;;21.44;56.41
44751;BME280;30477;48.224;11.470;2022-09-03T14:27:04;95888.72;;;21.11;57.68
44751;BME280;30477;48.224;11.470;2022-09-03T14:29:33;95917.97;;;20.90;59.35
44751;BME280;30477;48.224;11.470;2022-09-03T14:32:17;95943.97;;;20.19;60.07
44751;BME280;30477;48.224;11.470;2022-09-03T14:43:51;95967.28;;;19.34;64.93
44751;BME280;30477;48.224;11.470;2022-09-03T14:46:12;95945.88;;;19.37;65.31
44751;BME280;30477;48.224;11.470;2022-09-03T15:00:15;95939.56;;;19.12;65.83
44751;BME280;30477;48.224;11.470;2022-09-03T15:03:01;95958.09;;;19.10;66.82
44751;BME280;30477;48.224;11.470;2022-09-03T15:11:09;95972.09;;;18.82;67.90
44751;BME280;30477;48.224;11.470;2022-09-03T15:13:44;95957.69;;;18.72;68.76
44751;BME280;30477;48.224;11.470;2022-09-03T15:19:14;95922.09;;;18.84;69.65
44751;BME280;30477;48.224;11.470;2022-09-03T15:21:55;95914.72;;;18.73;69.43
44751;BME280;30477;48.224;11.470;2022-09-03T15:24:48;95910.88;;;18.69;69.45
44751;BME280;30477;48.224;11.470;2022-09-03T15:30:07;95905.97;;;18.52;69.79
44751;BME280;30477;48.224;11.470;2022-09-03T15:38:18;95932.19;;;18.52;71.11
44751;BME280;30477;48.224;11.470;2022-09-03T15:43:25;95945.03;;;18.47;72.37
44751;BME280;30477;48.224;11.470;2022-09-03T15:45:55;95941.94;;;18.37;72.21
44751;BME280;30477;48.224;11.470;2022-09-03T15:48:36;95946.34;;;18.30;72.32
44751;BME280;30477;48.224;11.470;2022-09-03T15:51:28;95961.00;;;18.24;72.40
44751;BME280;30477;48.224;11.470;2022-09-03T15:56:41;95960.13;;;18.10;71.98
44751;BME280;30477;48.224;11.470;2022-09-03T16:02:19;95955.63;;;18.04;71.18
44751;BME280;30477;48.224;11.470;2022-09-03T16:05:07;95953.25;;;18.09;71.48
44751;BME280;30477;48.224;11.470;2022-09-03T16:10:21;95945.88;;;18.19;70.84